»·PEaware :: N1507D KSMX-KBFL

N1507D :: KSMX-KBFL

FLIGHT INFORMATION

Flight Status: Arrived
Operator: Privately registered:
United States
More flights under this callsign
Pilot: Fabio L. (11512)
Aircraft: CESSNA 172 SKYHAWK
(C172)
More flights by this aircraft type
Origin: KSMX Santa Maria Pub/Capt Hancock
United States
Destination: KBFL Meadows
United States
More flights between these airports :: More routes between these airports
Route: DIRECT
File this flight plan on PilotEdge
Remarks: CAT 05
Altitude:
(Current/Filed)
7,500ft
Speed:
(Current/Filed)
107kts
Departed: 07-Nov-18 01:40 PM
Arrived: 07-Nov-18 02:28 PM
Distance/Time
Traveled:
148nm/0:48
Distance/Time
To Go:
Arrived

Flight Plot

Page will automatically refresh every two minutes.


Map Options




Map Legend


Flown Route
Filed Route
Departure Airport
Arrival Airport
Navaid (VOR, NDB)
Fix

Horizontal Profiles

Position Reports

Time Latitude Longitude Heading Altitude Ground
Speed
07-Nov-18 13:29 34.901606 -120.452226 228 265ft 0kts
07-Nov-18 13:30 34.901606 -120.452226 228 265ft 0kts
07-Nov-18 13:31 34.901606 -120.452226 228 265ft 0kts
07-Nov-18 13:32 34.901606 -120.452226 228 265ft 0kts
07-Nov-18 13:33 34.901606 -120.452226 228 265ft 0kts
07-Nov-18 13:34 34.901606 -120.452226 228 265ft 0kts
07-Nov-18 13:35 34.901606 -120.452226 228 265ft 0kts
07-Nov-18 13:36 34.901606 -120.452226 228 265ft 0kts
07-Nov-18 13:37 34.901260 -120.452643 230 265ft 10kts
07-Nov-18 13:38 34.898526 -120.450123 138 265ft 17kts
07-Nov-18 13:39 34.894385 -120.445419 156 265ft 10kts
07-Nov-18 13:40 34.893650 -120.445379 177 265ft 0kts
07-Nov-18 13:41 34.893650 -120.445379 177 265ft 0kts
07-Nov-18 13:42 34.893650 -120.445379 177 265ft 0kts
07-Nov-18 13:43 34.897024 -120.450562 318 375ft 62kts
07-Nov-18 13:44 34.912522 -120.455885 34 1042ft 81kts
07-Nov-18 13:45 34.924430 -120.427932 61 1566ft 102kts
07-Nov-18 13:46 34.936128 -120.396266 60 2200ft 99kts
07-Nov-18 13:47 34.947092 -120.367305 59 2873ft 89kts
07-Nov-18 13:48 34.956804 -120.341662 57 3539ft 78kts
07-Nov-18 13:49 34.965410 -120.318926 56 4126ft 75kts
07-Nov-18 13:50 34.974580 -120.294838 56 4629ft 81kts
07-Nov-18 13:51 34.984100 -120.269613 56 5119ft 83kts
07-Nov-18 13:52 34.993689 -120.244165 55 5605ft 81kts
07-Nov-18 13:53 35.002981 -120.219470 55 6081ft 78kts
07-Nov-18 13:54 35.012287 -120.194870 55 6487ft 82kts
07-Nov-18 13:55 35.022055 -120.169005 55 6856ft 87kts
07-Nov-18 13:56 35.032620 -120.141095 56 7153ft 96kts
07-Nov-18 13:57 35.044053 -120.110711 56 7449ft 100kts
07-Nov-18 13:58 35.055965 -120.078754 57 7470ft 104kts
07-Nov-18 13:59 35.067820 -120.047111 57 7465ft 101kts
07-Nov-18 14:00 35.079433 -120.016203 57 7464ft 100kts
07-Nov-18 14:01 35.091747 -119.983547 58 7466ft 110kts
07-Nov-18 14:02 35.104485 -119.949416 58 7467ft 113kts
07-Nov-18 14:03 35.117357 -119.914982 58 7467ft 114kts
07-Nov-18 14:04 35.130607 -119.879451 58 7466ft 115kts
07-Nov-18 14:05 35.144021 -119.843489 59 7465ft 116kts
07-Nov-18 14:06 35.157494 -119.807365 59 7463ft 117kts
07-Nov-18 14:07 35.170596 -119.772202 60 7460ft 118kts
07-Nov-18 14:08 35.184255 -119.735493 56 7445ft 119kts
07-Nov-18 14:09 35.197810 -119.698996 56 7454ft 117kts
07-Nov-18 14:10 35.211270 -119.662755 56 7464ft 116kts
07-Nov-18 14:11 35.224581 -119.626890 56 7473ft 115kts
07-Nov-18 14:12 35.237791 -119.591356 57 7482ft 114kts
07-Nov-18 14:13 35.250872 -119.556023 57 7489ft 113kts
07-Nov-18 14:14 35.263862 -119.520890 57 7495ft 113kts
07-Nov-18 14:15 35.276779 -119.485918 57 7496ft 113kts
07-Nov-18 14:16 35.289370 -119.451548 57 7049ft 109kts
07-Nov-18 14:17 35.301497 -119.418685 58 6570ft 107kts
07-Nov-18 14:18 35.313764 -119.385382 59 6085ft 108kts
07-Nov-18 14:19 35.326104 -119.351821 59 5600ft 108kts
07-Nov-18 14:20 35.338164 -119.318978 61 5115ft 109kts
07-Nov-18 14:21 35.350652 -119.284928 62 4551ft 114kts
07-Nov-18 14:22 35.363648 -119.249384 62 3958ft 116kts
07-Nov-18 14:23 35.376769 -119.213505 63 3368ft 117kts
07-Nov-18 14:24 35.387299 -119.176358 81 2783ft 121kts
07-Nov-18 14:25 35.390976 -119.135271 82 2185ft 121kts
07-Nov-18 14:26 35.394397 -119.095440 84 1792ft 104kts
07-Nov-18 14:27 35.396568 -119.065579 84 1796ft 76kts
07-Nov-18 14:28 35.403445 -119.039478 37 1266ft 82kts
07-Nov-18 14:29 35.422173 -119.042410 315 648ft 61kts
07-Nov-18 14:30 35.434613 -119.057159 313 511ft 52kts
07-Nov-18 14:31 35.436330 -119.057759 84 510ft 2kts
07-Nov-18 14:32 35.436330 -119.057748 83 510ft 0kts
07-Nov-18 14:33 35.436330 -119.057748 83 510ft 0kts
07-Nov-18 14:34 35.435057 -119.055386 139 510ft 14kts
07-Nov-18 14:35 35.435449 -119.053720 115 510ft 0kts
07-Nov-18 14:36 35.435449 -119.053720 115 510ft 0kts
07-Nov-18 14:37 35.435449 -119.053720 115 510ft 0kts
07-Nov-18 14:38 35.435449 -119.053720 115 510ft 0kts
07-Nov-18 14:39 35.435449 -119.053720 115 510ft 0kts
07-Nov-18 14:40 35.435449 -119.053720 115 510ft 0kts
07-Nov-18 14:41 35.435449 -119.053720 115 510ft 0kts
07-Nov-18 14:42 33.672404 -117.873169 28 59ft 0kts
07-Nov-18 14:43 33.672404 -117.873169 28 59ft 0kts
07-Nov-18 14:44 33.672404 -117.873169 28 59ft 0kts
07-Nov-18 14:45 33.672404 -117.873169 28 59ft 0kts
07-Nov-18 14:46 33.672404 -117.873169 28 59ft 0kts

Navigation Log

Ident Type
1. KSMX Airport
2. KBFL Airport